Mc Guire Air Force Base
KWRI : now visible

Airfield :











YOU CAN JOIN US ON...

 
LOGIN :

Register | Disclaimer

   EN    FR    IT 

 









Legend :    VFR   Marginal VFR   IFR   Intensive IFR   Very Intensive IFR
Visi :
Ceiling :
>= 8 km
>= 3000ft
5 to 8 km
1000 to 3000 ft
1500m to 5 km
500 to 1000 ft
800 to 1500m
200 to 500 ft
< 800m
< 200 ft
Symbols :   Thunderstorms  Fog  Heavy snow  Heavy precipitations  Wind > 20 kt






- Airport Elevation : 131 ft
- IATA code : WRI


KWRI - Mc Guire Air Force Base

CURRENT METAR :
  • 191956Z AUTO 31011G22KT 10SM CLR 10/M09 A3024 RMK AO2 PK WND 32027/01 SLP240 T01021090

EXPIRED METARs :
  • 191856Z AUTO 31018G24KT 10SM CLR 11/M10 A3022 RMK AO2 PK WND 31028/31 SLP234 T01071096
  • 191756Z AUTO 29012G20KT 10SM CLR 10/M08 A3023 RMK AO2 SLP237 T00951077 10098 20056

TAF TAF KWRI
Valid from the 19 at 18:00 until the 21 at 00:00 UTC


191800Z 1918/2024 31015G25KT 9999 SCT200 QNH3026INS
BECMG 1921/1922 32012KT 9999 SCT250 QNH3029INS
BECMG 2008/2009 VRB06KT 9999 SCT080 BKN150 QNH3041INS
BECMG 2016/2017 33007KT 9999 SCT050 BKN090 QNH3037INS TX10/1918Z TNM04/2011Z



MET'MAP, your aeronautical weather chart ! - Copyright ORBIFLY December 2007 - Disclaimer

ORBIFLY MET'MAP TEAM :

Programming & Development : Alexandra Zaïnal
Concept & original design : Baudouin d'Aumeries
Assistance for programming : Marc-Olivier Méhu
Technical & hardware support : Manuel Goepfert

Contact : metmap@orbifly.com




SOURCES & CREDITS :

   NOAA       Earth
Advisory